createdAt,value
2022-09-28T00:01:10.565Z,60.23
2022-09-28T00:03:37.518Z,61.51
2022-09-28T00:06:07.786Z,59.72
2022-09-28T00:08:36.258Z,61.22
2022-09-28T00:11:05.128Z,60.88
2022-09-28T00:13:32.939Z,59.56
2022-09-28T00:16:05.203Z,58.64
2022-09-28T00:18:33.071Z,58.91
2022-09-28T00:21:24.480Z,59.31
2022-09-28T00:24:12.623Z,58.52
2022-09-28T00:26:42.288Z,57.61
2022-09-28T00:29:27.184Z,60.38
2022-09-28T00:32:00.081Z,59.09
2022-09-28T00:34:27.424Z,57.51
2022-09-28T00:36:54.164Z,57.58
2022-09-28T00:39:21.524Z,57.77
2022-09-28T00:41:48.578Z,56.71
2022-09-28T00:44:33.928Z,56.65
2022-09-28T00:47:25.468Z,56.58
2022-09-28T00:50:03.020Z,56.97
2022-09-28T00:52:40.626Z,56.41
2022-09-28T00:55:12.011Z,57.63
2022-09-28T00:57:42.833Z,58.16
2022-09-28T01:00:11.185Z,58.21
2022-09-28T01:02:39.053Z,57.30
2022-09-28T01:05:07.453Z,56.59
2022-09-28T01:07:35.644Z,56.12
2022-09-28T01:10:03.396Z,56.25
2022-09-28T01:12:30.375Z,56.13
2022-09-28T01:15:00.537Z,55.84
2022-09-28T01:18:08.991Z,56.21
2022-09-28T01:20:54.151Z,55.53
2022-09-28T01:23:50.750Z,56.00
2022-09-28T01:26:34.400Z,57.04
2022-09-28T01:29:11.465Z,57.54
2022-09-28T01:31:41.848Z,56.41
2022-09-28T01:34:18.795Z,56.44
2022-09-28T01:36:53.857Z,56.91
2022-09-28T01:39:28.307Z,59.73
2022-09-28T01:42:01.007Z,60.12
2022-09-28T01:44:32.664Z,60.84
2022-09-28T01:47:04.257Z,59.96
2022-09-28T01:49:40.154Z,58.89
2022-09-28T01:52:19.847Z,59.03
2022-09-28T01:54:57.149Z,59.64
2022-09-28T01:57:45.585Z,59.33
2022-09-28T02:00:16.027Z,58.55
2022-09-28T02:02:56.264Z,59.17
2022-09-28T02:05:37.094Z,58.75
2022-09-28T02:08:11.408Z,58.11
2022-09-28T02:10:52.412Z,59.65
2022-09-28T02:13:28.160Z,59.78
2022-09-28T02:16:00.874Z,61.35
2022-09-28T02:18:27.969Z,61.99
2022-09-28T02:21:13.272Z,59.95
2022-09-28T02:23:49.904Z,59.33
2022-09-28T02:26:20.626Z,58.71
2022-09-28T02:28:48.740Z,60.94
2022-09-28T02:31:15.576Z,61.52
2022-09-28T02:33:44.710Z,59.46
2022-09-28T02:36:11.620Z,60.76
2022-09-28T02:38:39.219Z,60.64
2022-09-28T02:41:29.480Z,59.58
2022-09-28T02:44:17.432Z,60.20
2022-09-28T02:47:02.892Z,59.56
2022-09-28T02:49:47.518Z,59.74
2022-09-28T02:52:49.125Z,59.72
2022-09-28T02:56:00.639Z,59.88
2022-09-28T02:58:33.304Z,59.24
2022-09-28T03:01:20.464Z,58.49
2022-09-28T03:03:55.357Z,58.15
2022-09-28T03:06:34.819Z,58.05
2022-09-28T03:09:08.495Z,58.24
2022-09-28T03:11:48.124Z,57.81
2022-09-28T03:14:16.020Z,58.20
2022-09-28T03:16:50.112Z,58.65
2022-09-28T03:19:21.489Z,58.21
2022-09-28T03:21:49.361Z,57.40
2022-09-28T03:24:16.227Z,58.78
2022-09-28T03:26:43.230Z,58.37
2022-09-28T03:29:11.191Z,57.52
2022-09-28T03:31:38.633Z,57.78
2022-09-28T03:34:05.768Z,58.63
2022-09-28T03:36:32.670Z,57.85
2022-09-28T03:38:59.711Z,57.73
2022-09-28T03:41:30.154Z,57.43
2022-09-28T03:43:56.932Z,58.05
2022-09-28T03:46:26.387Z,59.42
2022-09-28T03:48:58.630Z,58.01
2022-09-28T03:51:26.139Z,59.21
2022-09-28T03:53:53.685Z,58.91
2022-09-28T03:56:21.063Z,58.82
2022-09-28T03:58:47.800Z,60.32
2022-09-28T04:01:18.637Z,61.77
2022-09-28T04:03:47.784Z,60.55
2022-09-28T04:06:15.011Z,59.50
2022-09-28T04:08:43.462Z,61.97
2022-09-28T04:11:11.444Z,60.16
2022-09-28T04:13:38.275Z,60.44
2022-09-28T04:16:08.141Z,59.88
2022-09-28T04:18:35.735Z,60.45
2022-09-28T04:21:13.534Z,59.85
2022-09-28T04:23:44.719Z,60.71
2022-09-28T04:26:20.798Z,60.50
2022-09-28T04:29:07.407Z,59.98
2022-09-28T04:31:47.211Z,59.81
2022-09-28T04:34:18.386Z,58.84
2022-09-28T04:36:45.998Z,59.23
2022-09-28T04:39:14.266Z,58.82
2022-09-28T04:41:43.840Z,58.42
2022-09-28T04:44:10.896Z,57.92
2022-09-28T04:46:37.796Z,60.31
2022-09-28T04:49:25.056Z,59.77
2022-09-28T04:51:54.895Z,58.83
2022-09-28T04:54:21.822Z,59.03
2022-09-28T04:56:49.132Z,57.91
2022-09-28T04:59:15.954Z,58.49
2022-09-28T05:01:44.637Z,58.74
2022-09-28T05:04:43.868Z,60.04
2022-09-28T05:07:29.057Z,61.05
2022-09-28T05:09:57.276Z,60.17
2022-09-28T05:12:24.495Z,58.91
2022-09-28T05:14:51.258Z,60.93
2022-09-28T05:17:18.413Z,61.32
2022-09-28T05:20:09.040Z,61.08
2022-09-28T05:22:35.846Z,61.69
2022-09-28T05:25:04.945Z,61.27
2022-09-28T05:27:41.721Z,60.11
2022-09-28T05:30:23.903Z,58.55
2022-09-28T05:33:09.129Z,59.11
2022-09-28T05:35:47.860Z,58.61
2022-09-28T05:38:16.799Z,58.08
2022-09-28T05:40:43.823Z,59.10
2022-09-28T05:43:10.616Z,58.61
2022-09-28T05:45:38.084Z,61.50
2022-09-28T05:48:05.108Z,59.55
2022-09-28T05:50:31.882Z,59.70
2022-09-28T05:53:07.749Z,59.75
2022-09-28T05:55:37.726Z,59.16
2022-09-28T05:58:06.740Z,58.32
2022-09-28T06:00:35.811Z,60.28
2022-09-28T06:03:09.397Z,58.43
2022-09-28T06:05:39.478Z,58.23
2022-09-28T06:08:10.455Z,59.10
2022-09-28T06:10:38.995Z,59.00
2022-09-28T06:13:06.688Z,58.82
2022-09-28T06:15:35.984Z,59.63
2022-09-28T06:18:04.870Z,58.65
2022-09-28T06:20:41.328Z,59.33
2022-09-28T06:23:13.782Z,57.69
2022-09-28T06:25:41.248Z,58.76
2022-09-28T06:28:11.925Z,58.77
2022-09-28T06:30:41.346Z,58.61
2022-09-28T06:33:13.845Z,59.28
2022-09-28T06:35:41.062Z,59.43
2022-09-28T06:38:08.210Z,60.47
2022-09-28T06:40:35.997Z,60.65
2022-09-28T06:43:12.644Z,58.90
2022-09-28T06:45:58.248Z,58.66
2022-09-28T06:48:34.050Z,58.58
2022-09-28T06:51:02.431Z,57.94
2022-09-28T06:53:37.754Z,59.59
2022-09-28T06:56:26.465Z,59.38
2022-09-28T06:58:56.355Z,59.20
2022-09-28T07:01:24.627Z,59.19
2022-09-28T07:04:17.489Z,57.86
2022-09-28T07:06:54.269Z,56.30
2022-09-28T07:09:44.965Z,57.57
2022-09-28T07:12:35.824Z,57.92
2022-09-28T07:15:12.269Z,59.53
2022-09-28T07:17:52.150Z,57.71
2022-09-28T07:20:25.420Z,59.22
2022-09-28T07:22:56.296Z,56.95
2022-09-28T07:25:25.668Z,55.93
2022-09-28T07:28:07.391Z,56.57
2022-09-28T07:31:13.085Z,57.55
2022-09-28T07:34:00.336Z,55.74
2022-09-28T07:36:36.347Z,57.38
2022-09-28T07:39:03.944Z,56.26
2022-09-28T07:41:33.673Z,55.33
2022-09-28T07:44:06.423Z,56.37
2022-09-28T07:46:35.839Z,58.75
2022-09-28T07:49:16.894Z,59.96
2022-09-28T07:52:09.115Z,57.89
2022-09-28T07:54:40.507Z,58.00
2022-09-28T07:57:24.356Z,60.25
2022-09-28T08:00:09.108Z,58.17
2022-09-28T08:02:45.633Z,56.04
2022-09-28T08:05:17.200Z,55.33
2022-09-28T08:07:44.808Z,56.69
2022-09-28T08:10:12.872Z,55.97
2022-09-28T08:13:16.565Z,51.64
2022-09-28T08:16:05.181Z,52.06
2022-09-28T08:18:39.989Z,53.44
2022-09-28T08:21:25.678Z,52.26
2022-09-28T08:23:53.236Z,53.66
2022-09-28T08:26:20.080Z,52.58
2022-09-28T08:28:47.898Z,52.75
2022-09-28T08:31:33.563Z,50.52
2022-09-28T08:34:17.313Z,51.33
2022-09-28T08:37:03.775Z,51.62
2022-09-28T08:39:50.688Z,50.67
2022-09-28T08:42:58.742Z,51.06
2022-09-28T08:45:44.392Z,48.70
2022-09-28T08:49:01.121Z,47.61
2022-09-28T08:52:23.429Z,48.11
2022-09-28T08:55:33.046Z,50.14
2022-09-28T08:58:17.650Z,48.53
2022-09-28T09:00:53.086Z,47.57
2022-09-28T09:03:35.995Z,48.62
2022-09-28T09:06:49.981Z,45.26
2022-09-28T09:10:13.424Z,45.46
2022-09-28T09:12:46.644Z,43.18
2022-09-28T09:15:27.240Z,43.82
2022-09-28T09:18:06.303Z,42.48
2022-09-28T09:21:28.510Z,45.02
2022-09-28T09:24:03.681Z,43.22
2022-09-28T09:26:39.612Z,43.48
2022-09-28T09:29:21.599Z,41.70
2022-09-28T09:32:14.356Z,43.07
2022-09-28T09:35:00.046Z,42.60
2022-09-28T09:38:19.143Z,40.40
2022-09-28T09:41:38.431Z,40.68
2022-09-28T09:45:14.201Z,40.79
2022-09-28T09:48:11.482Z,40.80
2022-09-28T09:51:19.952Z,39.87
2022-09-28T09:54:00.105Z,40.99
2022-09-28T09:56:36.938Z,40.11
2022-09-28T09:59:29.960Z,38.76
2022-09-28T10:02:31.765Z,37.54
2022-09-28T10:05:21.061Z,39.15
2022-09-28T10:08:12.015Z,39.09
2022-09-28T10:10:51.448Z,38.60
2022-09-28T10:13:20.140Z,38.74
2022-09-28T10:15:48.065Z,37.76
2022-09-28T10:18:22.108Z,37.61
2022-09-28T10:21:11.623Z,39.02
2022-09-28T10:23:55.158Z,38.87
2022-09-28T10:26:32.287Z,36.31
2022-09-28T10:29:02.029Z,37.58
2022-09-28T10:31:41.056Z,36.08
2022-09-28T10:34:15.841Z,35.23
2022-09-28T10:36:51.143Z,36.88
2022-09-28T10:39:30.249Z,36.11
2022-09-28T10:42:00.186Z,35.50
2022-09-28T10:44:32.677Z,33.82
2022-09-28T10:47:09.932Z,35.06
2022-09-28T10:49:47.402Z,35.81
2022-09-28T10:52:40.348Z,34.78
2022-09-28T10:55:21.517Z,32.46
2022-09-28T10:57:48.663Z,33.47
2022-09-28T11:00:42.839Z,33.01
2022-09-28T11:03:29.008Z,34.22
2022-09-28T11:06:07.117Z,33.84
2022-09-28T11:08:42.656Z,33.99
2022-09-28T11:11:16.344Z,32.78
2022-09-28T11:13:55.827Z,31.47
2022-09-28T11:16:32.028Z,32.53
2022-09-28T11:19:25.412Z,32.49
2022-09-28T11:21:52.430Z,31.63
2022-09-28T11:24:26.018Z,32.13
2022-09-28T11:27:00.124Z,31.51
2022-09-28T11:29:41.677Z,30.82
2022-09-28T11:32:22.103Z,31.04
2022-09-28T11:35:21.979Z,34.16
2022-09-28T11:38:27.700Z,31.57
2022-09-28T11:41:49.971Z,32.36
2022-09-28T11:44:29.452Z,31.48
2022-09-28T11:47:30.049Z,31.57
2022-09-28T11:50:23.729Z,29.28
2022-09-28T11:53:03.910Z,29.57
2022-09-28T11:55:43.952Z,28.05
2022-09-28T11:58:30.414Z,28.64
2022-09-28T12:01:39.213Z,28.18
2022-09-28T12:04:26.799Z,29.40
2022-09-28T12:06:57.181Z,28.09
2022-09-28T12:09:55.729Z,29.33
2022-09-28T12:12:28.599Z,29.41
2022-09-28T12:15:03.147Z,28.81
2022-09-28T12:17:44.105Z,29.64
2022-09-28T12:20:26.234Z,29.72
2022-09-28T12:22:56.053Z,28.86
2022-09-28T12:25:23.880Z,29.45
2022-09-28T12:27:53.007Z,30.23
2022-09-28T12:30:22.194Z,30.03
2022-09-28T12:33:05.541Z,28.94
2022-09-28T12:35:55.854Z,27.62
2022-09-28T12:38:41.848Z,28.73
2022-09-28T12:41:39.492Z,32.70
2022-09-28T12:44:42.711Z,33.93
2022-09-28T12:47:32.556Z,30.65
2022-09-28T12:50:40.626Z,29.43
2022-09-28T12:53:20.126Z,29.55
2022-09-28T12:55:58.806Z,29.79
2022-09-28T12:58:37.423Z,30.61
2022-09-28T13:01:13.772Z,29.86
2022-09-28T13:03:49.289Z,29.24
2022-09-28T13:06:51.857Z,28.90
2022-09-28T13:09:24.268Z,29.80
2022-09-28T13:11:54.760Z,30.50
2022-09-28T13:14:40.175Z,29.11
2022-09-28T13:17:18.598Z,30.94
2022-09-28T13:19:58.416Z,28.39
2022-09-28T13:22:43.491Z,29.08
2022-09-28T13:25:17.042Z,28.68
2022-09-28T13:27:56.670Z,28.55
2022-09-28T13:30:23.611Z,28.81
2022-09-28T13:32:50.628Z,28.78
2022-09-28T13:35:22.003Z,29.61
2022-09-28T13:38:17.823Z,28.37
2022-09-28T13:41:06.656Z,28.54
2022-09-28T13:44:00.271Z,28.11
2022-09-28T13:46:55.191Z,27.03
2022-09-28T13:49:24.599Z,25.92
2022-09-28T13:52:09.532Z,25.51
2022-09-28T13:54:58.171Z,25.45
2022-09-28T13:57:50.080Z,25.64
2022-09-28T14:00:25.424Z,23.90
2022-09-28T14:03:24.012Z,23.96
2022-09-28T14:06:18.410Z,24.12
2022-09-28T14:09:15.799Z,24.94
2022-09-28T14:11:44.285Z,26.00
2022-09-28T14:14:11.904Z,26.17
2022-09-28T14:16:42.411Z,25.94
2022-09-28T14:19:27.181Z,26.78
2022-09-28T14:22:15.361Z,25.58
2022-09-28T14:25:09.007Z,25.33
2022-09-28T14:28:17.375Z,26.48
2022-09-28T14:30:48.734Z,26.88
2022-09-28T14:33:28.198Z,26.66
2022-09-28T14:35:58.328Z,25.47
2022-09-28T14:39:06.830Z,26.16
2022-09-28T14:41:39.724Z,26.63
2022-09-28T14:44:11.092Z,26.36
2022-09-28T14:46:40.508Z,26.29
2022-09-28T14:49:25.037Z,27.51
2022-09-28T14:52:02.173Z,26.91
2022-09-28T14:54:43.084Z,27.18
2022-09-28T14:57:21.572Z,26.61
2022-09-28T14:59:49.044Z,26.61
2022-09-28T15:02:36.060Z,27.13
2022-09-28T15:05:38.884Z,27.22
2022-09-28T15:08:07.935Z,27.37
2022-09-28T15:10:39.216Z,26.84
2022-09-28T15:13:20.078Z,27.97
2022-09-28T15:15:50.573Z,28.05
2022-09-28T15:18:50.296Z,27.10
2022-09-28T15:21:17.755Z,27.37
2022-09-28T15:23:45.603Z,27.31
2022-09-28T15:26:33.154Z,27.30
2022-09-28T15:29:03.321Z,28.01
2022-09-28T15:31:34.523Z,28.25
2022-09-28T15:34:19.995Z,28.12
2022-09-28T15:36:47.292Z,27.79
2022-09-28T15:39:17.067Z,27.90
2022-09-28T15:41:46.144Z,27.94
2022-09-28T15:44:14.865Z,28.25
2022-09-28T15:46:47.771Z,28.36
2022-09-28T15:49:38.967Z,27.78
2022-09-28T15:52:06.264Z,27.65
2022-09-28T15:54:44.177Z,27.93
2022-09-28T15:57:31.003Z,28.28
2022-09-28T15:59:59.460Z,28.17
2022-09-28T16:02:27.232Z,28.75
2022-09-28T16:05:00.819Z,28.88
2022-09-28T16:07:38.722Z,28.96
2022-09-28T16:10:15.310Z,29.46
2022-09-28T16:12:50.192Z,29.90
2022-09-28T16:15:25.871Z,30.53
2022-09-28T16:18:00.691Z,30.58
2022-09-28T16:20:32.195Z,31.50
2022-09-28T16:23:05.964Z,31.07
2022-09-28T16:25:37.527Z,30.76
2022-09-28T16:28:06.872Z,31.26
2022-09-28T16:30:34.900Z,30.54
2022-09-28T16:33:05.856Z,30.75
2022-09-28T16:35:35.456Z,30.77
2022-09-28T16:38:04.278Z,31.37
2022-09-28T16:40:33.099Z,31.06
2022-09-28T16:43:03.510Z,30.60
2022-09-28T16:45:30.618Z,31.09
2022-09-28T16:47:58.825Z,30.34
2022-09-28T16:50:26.263Z,30.13
2022-09-28T16:53:18.821Z,29.87
2022-09-28T16:55:48.674Z,30.17
2022-09-28T16:58:15.544Z,31.05
2022-09-28T17:00:43.738Z,30.78
2022-09-28T17:03:14.591Z,30.53
2022-09-28T17:05:41.818Z,30.81
2022-09-28T17:08:13.655Z,30.36
2022-09-28T17:11:14.816Z,29.68
2022-09-28T17:13:45.945Z,30.23
2022-09-28T17:16:12.585Z,30.72
2022-09-28T17:18:40.011Z,29.57
2022-09-28T17:21:12.505Z,30.14
2022-09-28T17:23:39.319Z,31.23
2022-09-28T17:26:06.731Z,32.46
2022-09-28T17:28:36.242Z,31.76
2022-09-28T17:31:04.381Z,31.81
2022-09-28T17:33:31.640Z,32.09
2022-09-28T17:36:04.743Z,32.63
2022-09-28T17:38:31.991Z,32.86
2022-09-28T17:40:59.125Z,32.20
2022-09-28T17:43:25.985Z,33.76
2022-09-28T17:45:52.993Z,33.75
2022-09-28T17:48:23.411Z,34.01
2022-09-28T17:50:51.431Z,32.72
2022-09-28T17:53:18.091Z,33.53
2022-09-28T17:55:44.877Z,34.74
2022-09-28T17:58:14.559Z,34.47
2022-09-28T18:00:41.544Z,34.47
2022-09-28T18:03:20.004Z,35.55
2022-09-28T18:05:49.804Z,36.06
2022-09-28T18:08:21.278Z,36.06
2022-09-28T18:10:50.344Z,35.62
2022-09-28T18:13:17.047Z,36.29
2022-09-28T18:15:44.165Z,36.27
2022-09-28T18:18:12.839Z,36.13
2022-09-28T18:20:41.308Z,35.75
2022-09-28T18:23:08.139Z,36.38
2022-09-28T18:25:34.999Z,36.64
2022-09-28T18:28:01.737Z,36.61
2022-09-28T18:30:28.934Z,37.22
2022-09-28T18:32:56.127Z,37.31
2022-09-28T18:35:23.539Z,37.23
2022-09-28T18:37:50.666Z,37.84
2022-09-28T18:40:18.048Z,37.60
2022-09-28T18:42:44.832Z,37.66
2022-09-28T18:45:12.075Z,38.10
2022-09-28T18:47:39.248Z,37.23
2022-09-28T18:50:06.506Z,38.25
2022-09-28T18:52:37.267Z,39.17
2022-09-28T18:55:05.639Z,38.38
2022-09-28T18:57:33.703Z,38.35
2022-09-28T19:00:06.415Z,38.89
2022-09-28T19:02:33.318Z,40.98
2022-09-28T19:05:00.221Z,41.57
2022-09-28T19:07:27.306Z,41.08
2022-09-28T19:09:54.337Z,40.87
2022-09-28T19:12:21.161Z,40.32
2022-09-28T19:14:47.981Z,40.15
2022-09-28T19:17:14.773Z,40.40
2022-09-28T19:19:45.014Z,40.42
2022-09-28T19:22:12.215Z,39.78
2022-09-28T19:24:39.267Z,41.07
2022-09-28T19:27:05.921Z,41.21
2022-09-28T19:29:32.810Z,41.16
2022-09-28T19:31:59.541Z,40.73
2022-09-28T19:34:29.915Z,40.82
2022-09-28T19:36:57.510Z,40.87
2022-09-28T19:39:24.351Z,40.46
2022-09-28T19:41:52.467Z,40.49
2022-09-28T19:44:25.210Z,41.15
2022-09-28T19:46:59.583Z,40.95
2022-09-28T19:49:27.917Z,40.82
2022-09-28T19:52:14.393Z,42.00
2022-09-28T19:55:07.473Z,39.76
2022-09-28T19:57:34.906Z,39.25
2022-09-28T20:00:03.513Z,40.43
2022-09-28T20:02:34.989Z,40.15
2022-09-28T20:05:02.295Z,40.52
2022-09-28T20:07:32.801Z,39.88
2022-09-28T20:09:59.939Z,40.40
2022-09-28T20:12:26.900Z,39.67
2022-09-28T20:14:54.289Z,38.79
2022-09-28T20:17:21.797Z,39.23
2022-09-28T20:19:51.079Z,39.39
2022-09-28T20:22:18.703Z,39.96
2022-09-28T20:24:45.597Z,39.91
2022-09-28T20:27:12.371Z,40.43
2022-09-28T20:29:39.213Z,40.31
2022-09-28T20:32:05.981Z,40.74
2022-09-28T20:34:33.969Z,40.60
2022-09-28T20:37:01.178Z,40.98
2022-09-28T20:39:28.095Z,41.12
2022-09-28T20:41:55.032Z,40.96
2022-09-28T20:44:22.000Z,41.87
2022-09-28T20:46:51.965Z,40.72
2022-09-28T20:49:18.928Z,41.43
2022-09-28T20:51:45.723Z,41.17
2022-09-28T20:54:12.811Z,40.55
2022-09-28T20:56:39.503Z,40.64
2022-09-28T20:59:12.022Z,40.97
2022-09-28T21:01:39.557Z,42.14
2022-09-28T21:04:08.634Z,41.77
2022-09-28T21:06:38.050Z,42.53
2022-09-28T21:09:07.080Z,42.27
2022-09-28T21:11:35.830Z,41.98
2022-09-28T21:14:06.289Z,43.09
2022-09-28T21:16:34.907Z,43.00
2022-09-28T21:19:01.719Z,43.49
2022-09-28T21:21:28.681Z,42.96
2022-09-28T21:23:56.844Z,43.35
2022-09-28T21:26:27.166Z,45.46
2022-09-28T21:28:59.230Z,44.94
2022-09-28T21:31:29.369Z,44.17
2022-09-28T21:33:57.546Z,43.52
2022-09-28T21:36:25.704Z,45.48
2022-09-28T21:38:54.520Z,46.20
2022-09-28T21:41:21.420Z,45.36
2022-09-28T21:43:48.111Z,44.76
2022-09-28T21:46:15.015Z,44.75
2022-09-28T21:48:41.787Z,44.17
2022-09-28T21:51:12.622Z,44.92
2022-09-28T21:53:39.706Z,45.14
2022-09-28T21:56:08.119Z,44.62
2022-09-28T21:58:36.025Z,45.60
2022-09-28T22:01:15.475Z,45.68
2022-09-28T22:03:45.115Z,46.32
2022-09-28T22:06:11.974Z,45.90
2022-09-28T22:08:39.510Z,46.03
2022-09-28T22:11:11.738Z,46.33
2022-09-28T22:13:44.029Z,48.01
2022-09-28T22:16:12.798Z,48.87
2022-09-28T22:18:40.133Z,47.19
2022-09-28T22:21:11.638Z,46.20
2022-09-28T22:23:40.017Z,46.35
2022-09-28T22:26:12.969Z,47.51
2022-09-28T22:28:45.724Z,48.41
2022-09-28T22:31:12.796Z,47.76
2022-09-28T22:33:39.672Z,46.71
2022-09-28T22:36:07.973Z,46.14
2022-09-28T22:38:35.321Z,45.63
2022-09-28T22:41:05.143Z,45.36
2022-09-28T22:43:32.059Z,45.96
2022-09-28T22:46:03.436Z,45.65
2022-09-28T22:48:30.803Z,46.07
2022-09-28T22:50:57.607Z,47.91
2022-09-28T22:53:24.772Z,48.18
2022-09-28T22:55:52.793Z,46.86
2022-09-28T22:58:19.649Z,47.05
2022-09-28T23:00:46.580Z,46.21
2022-09-28T23:03:13.524Z,46.26
2022-09-28T23:05:40.500Z,46.56
2022-09-28T23:08:07.379Z,46.78
2022-09-28T23:10:34.404Z,47.15
2022-09-28T23:13:01.152Z,47.36
2022-09-28T23:15:29.009Z,47.79
2022-09-28T23:17:55.770Z,47.69
2022-09-28T23:20:22.706Z,47.37
2022-09-28T23:22:50.006Z,46.84
2022-09-28T23:25:17.825Z,46.24
2022-09-28T23:27:46.696Z,46.78
2022-09-28T23:30:15.484Z,47.59
2022-09-28T23:32:42.354Z,47.40
2022-09-28T23:35:10.463Z,47.09
2022-09-28T23:37:37.721Z,48.53
2022-09-28T23:40:06.396Z,47.85
2022-09-28T23:42:34.763Z,47.71
2022-09-28T23:45:01.845Z,47.60
2022-09-28T23:47:29.551Z,46.81
2022-09-28T23:49:56.394Z,47.14
2022-09-28T23:52:23.132Z,46.72
2022-09-28T23:54:50.147Z,47.70
2022-09-28T23:57:16.875Z,47.24
2022-09-28T23:59:44.347Z,47.68
